sensor_id;sensor_type;location;lat;lon;timestamp;P1;durP1;ratioP1;P2;durP2;ratioP2
6513;SDS011;3290;47.716;9.070;2023-11-19T00:01:25;2.20;;;2.03;;
6513;SDS011;3290;47.716;9.070;2023-11-19T00:03:50;2.73;;;1.70;;
6513;SDS011;3290;47.716;9.070;2023-11-19T00:06:16;2.90;;;2.00;;
6513;SDS011;3290;47.716;9.070;2023-11-19T00:08:41;1.93;;;1.70;;
6513;SDS011;3290;47.716;9.070;2023-11-19T00:11:08;2.20;;;1.60;;
6513;SDS011;3290;47.716;9.070;2023-11-19T00:13:34;4.20;;;2.37;;
6513;SDS011;3290;47.716;9.070;2023-11-19T00:15:59;2.90;;;1.97;;
6513;SDS011;3290;47.716;9.070;2023-11-19T00:18:25;3.50;;;2.50;;
6513;SDS011;3290;47.716;9.070;2023-11-19T00:20:50;1.97;;;1.77;;
6513;SDS011;3290;47.716;9.070;2023-11-19T00:23:16;2.27;;;1.80;;
6513;SDS011;3290;47.716;9.070;2023-11-19T00:25:41;4.83;;;2.20;;
6513;SDS011;3290;47.716;9.070;2023-11-19T00:28:06;3.30;;;2.10;;
6513;SDS011;3290;47.716;9.070;2023-11-19T00:30:32;3.20;;;2.10;;
6513;SDS011;3290;47.716;9.070;2023-11-19T00:32:57;2.93;;;2.20;;
6513;SDS011;3290;47.716;9.070;2023-11-19T00:35:23;3.33;;;2.40;;
6513;SDS011;3290;47.716;9.070;2023-11-19T00:37:48;3.10;;;2.00;;
6513;SDS011;3290;47.716;9.070;2023-11-19T00:40:14;2.33;;;2.13;;
6513;SDS011;3290;47.716;9.070;2023-11-19T00:42:42;3.60;;;2.63;;
6513;SDS011;3290;47.716;9.070;2023-11-19T00:45:08;3.43;;;2.20;;
6513;SDS011;3290;47.716;9.070;2023-11-19T00:47:34;3.33;;;2.50;;
6513;SDS011;3290;47.716;9.070;2023-11-19T00:50:00;3.67;;;2.70;;
6513;SDS011;3290;47.716;9.070;2023-11-19T00:52:26;3.57;;;2.83;;
6513;SDS011;3290;47.716;9.070;2023-11-19T00:54:51;2.90;;;2.33;;
6513;SDS011;3290;47.716;9.070;2023-11-19T00:57:17;3.43;;;2.30;;
6513;SDS011;3290;47.716;9.070;2023-11-19T00:59:42;2.30;;;2.10;;
6513;SDS011;3290;47.716;9.070;2023-11-19T01:02:08;3.03;;;2.73;;
6513;SDS011;3290;47.716;9.070;2023-11-19T01:04:36;3.00;;;2.10;;
6513;SDS011;3290;47.716;9.070;2023-11-19T01:07:02;2.73;;;2.30;;
6513;SDS011;3290;47.716;9.070;2023-11-19T01:09:34;3.47;;;3.00;;
6513;SDS011;3290;47.716;9.070;2023-11-19T01:11:59;3.00;;;2.70;;
6513;SDS011;3290;47.716;9.070;2023-11-19T01:14:26;2.80;;;2.47;;
6513;SDS011;3290;47.716;9.070;2023-11-19T01:16:52;3.40;;;2.47;;
6513;SDS011;3290;47.716;9.070;2023-11-19T01:19:18;2.20;;;2.00;;
6513;SDS011;3290;47.716;9.070;2023-11-19T01:21:44;2.27;;;2.00;;
6513;SDS011;3290;47.716;9.070;2023-11-19T01:24:09;2.93;;;2.47;;
6513;SDS011;3290;47.716;9.070;2023-11-19T01:26:37;8.17;;;2.30;;
6513;SDS011;3290;47.716;9.070;2023-11-19T01:29:02;4.33;;;2.77;;
6513;SDS011;3290;47.716;9.070;2023-11-19T01:31:29;4.80;;;2.50;;
6513;SDS011;3290;47.716;9.070;2023-11-19T01:33:55;3.83;;;3.20;;
6513;SDS011;3290;47.716;9.070;2023-11-19T01:36:21;7.07;;;3.17;;
6513;SDS011;3290;47.716;9.070;2023-11-19T01:38:46;3.20;;;2.80;;
6513;SDS011;3290;47.716;9.070;2023-11-19T01:41:11;2.80;;;2.47;;
6513;SDS011;3290;47.716;9.070;2023-11-19T01:43:38;3.67;;;2.60;;
6513;SDS011;3290;47.716;9.070;2023-11-19T01:46:07;2.53;;;2.23;;
6513;SDS011;3290;47.716;9.070;2023-11-19T01:48:36;2.77;;;2.57;;
6513;SDS011;3290;47.716;9.070;2023-11-19T01:51:05;3.23;;;2.30;;
6513;SDS011;3290;47.716;9.070;2023-11-19T01:53:31;3.43;;;2.67;;
6513;SDS011;3290;47.716;9.070;2023-11-19T01:55:59;5.33;;;3.33;;
6513;SDS011;3290;47.716;9.070;2023-11-19T01:58:25;2.63;;;2.43;;
6513;SDS011;3290;47.716;9.070;2023-11-19T02:00:50;4.40;;;2.97;;
6513;SDS011;3290;47.716;9.070;2023-11-19T02:03:16;3.30;;;2.43;;
6513;SDS011;3290;47.716;9.070;2023-11-19T02:05:42;3.97;;;2.70;;
6513;SDS011;3290;47.716;9.070;2023-11-19T02:08:07;2.80;;;2.40;;
6513;SDS011;3290;47.716;9.070;2023-11-19T02:10:33;3.87;;;2.53;;
6513;SDS011;3290;47.716;9.070;2023-11-19T02:12:59;3.70;;;2.60;;
6513;SDS011;3290;47.716;9.070;2023-11-19T02:15:25;3.53;;;3.23;;
6513;SDS011;3290;47.716;9.070;2023-11-19T02:17:51;5.00;;;2.97;;
6513;SDS011;3290;47.716;9.070;2023-11-19T02:20:16;4.80;;;3.00;;
6513;SDS011;3290;47.716;9.070;2023-11-19T02:22:44;6.23;;;3.00;;
6513;SDS011;3290;47.716;9.070;2023-11-19T02:25:17;5.87;;;3.20;;
6513;SDS011;3290;47.716;9.070;2023-11-19T02:27:51;4.10;;;2.60;;
6513;SDS011;3290;47.716;9.070;2023-11-19T02:30:22;3.67;;;3.00;;
6513;SDS011;3290;47.716;9.070;2023-11-19T02:32:57;5.03;;;3.30;;
6513;SDS011;3290;47.716;9.070;2023-11-19T02:35:26;2.80;;;2.37;;
6513;SDS011;3290;47.716;9.070;2023-11-19T02:37:53;3.67;;;3.03;;
6513;SDS011;3290;47.716;9.070;2023-11-19T02:40:19;4.17;;;2.50;;
6513;SDS011;3290;47.716;9.070;2023-11-19T02:42:44;5.07;;;2.47;;
6513;SDS011;3290;47.716;9.070;2023-11-19T02:45:10;3.60;;;2.67;;
6513;SDS011;3290;47.716;9.070;2023-11-19T02:47:39;4.80;;;2.80;;
6513;SDS011;3290;47.716;9.070;2023-11-19T02:50:06;2.43;;;1.63;;
6513;SDS011;3290;47.716;9.070;2023-11-19T02:52:38;2.80;;;1.97;;
6513;SDS011;3290;47.716;9.070;2023-11-19T02:55:04;2.23;;;2.03;;
6513;SDS011;3290;47.716;9.070;2023-11-19T02:57:34;2.23;;;1.70;;
6513;SDS011;3290;47.716;9.070;2023-11-19T03:00:00;3.73;;;2.80;;
6513;SDS011;3290;47.716;9.070;2023-11-19T03:02:25;2.93;;;1.90;;
6513;SDS011;3290;47.716;9.070;2023-11-19T03:04:58;1.67;;;1.57;;
6513;SDS011;3290;47.716;9.070;2023-11-19T03:07:24;2.13;;;1.93;;
6513;SDS011;3290;47.716;9.070;2023-11-19T03:09:49;2.07;;;1.67;;
6513;SDS011;3290;47.716;9.070;2023-11-19T03:12:15;1.87;;;1.70;;
6513;SDS011;3290;47.716;9.070;2023-11-19T03:14:40;3.30;;;1.90;;
6513;SDS011;3290;47.716;9.070;2023-11-19T03:17:05;2.23;;;1.83;;
6513;SDS011;3290;47.716;9.070;2023-11-19T03:19:31;2.10;;;1.53;;
6513;SDS011;3290;47.716;9.070;2023-11-19T03:21:56;3.13;;;1.87;;
6513;SDS011;3290;47.716;9.070;2023-11-19T03:24:21;4.13;;;1.63;;
6513;SDS011;3290;47.716;9.070;2023-11-19T03:26:50;2.43;;;1.80;;
6513;SDS011;3290;47.716;9.070;2023-11-19T03:29:15;4.27;;;1.67;;
6513;SDS011;3290;47.716;9.070;2023-11-19T03:31:44;3.67;;;1.90;;
6513;SDS011;3290;47.716;9.070;2023-11-19T03:34:12;2.20;;;1.90;;
6513;SDS011;3290;47.716;9.070;2023-11-19T03:36:37;6.70;;;1.50;;
6513;SDS011;3290;47.716;9.070;2023-11-19T03:39:03;3.20;;;2.00;;
6513;SDS011;3290;47.716;9.070;2023-11-19T03:41:28;2.93;;;2.07;;
6513;SDS011;3290;47.716;9.070;2023-11-19T03:43:53;4.23;;;2.27;;
6513;SDS011;3290;47.716;9.070;2023-11-19T03:46:19;2.40;;;2.20;;
6513;SDS011;3290;47.716;9.070;2023-11-19T03:48:46;3.20;;;2.20;;
6513;SDS011;3290;47.716;9.070;2023-11-19T03:51:12;4.30;;;1.87;;
6513;SDS011;3290;47.716;9.070;2023-11-19T03:53:42;2.13;;;1.83;;
6513;SDS011;3290;47.716;9.070;2023-11-19T03:56:08;2.57;;;2.37;;
6513;SDS011;3290;47.716;9.070;2023-11-19T03:58:35;3.00;;;2.37;;
6513;SDS011;3290;47.716;9.070;2023-11-19T04:01:00;2.20;;;1.90;;
6513;SDS011;3290;47.716;9.070;2023-11-19T04:03:26;2.50;;;2.20;;
6513;SDS011;3290;47.716;9.070;2023-11-19T04:05:51;2.60;;;2.00;;
6513;SDS011;3290;47.716;9.070;2023-11-19T04:08:17;3.30;;;2.03;;
6513;SDS011;3290;47.716;9.070;2023-11-19T04:10:42;2.50;;;2.30;;
6513;SDS011;3290;47.716;9.070;2023-11-19T04:13:07;3.13;;;2.27;;
6513;SDS011;3290;47.716;9.070;2023-11-19T04:15:33;2.37;;;2.17;;
6513;SDS011;3290;47.716;9.070;2023-11-19T04:17:58;2.93;;;2.60;;
6513;SDS011;3290;47.716;9.070;2023-11-19T04:20:23;4.40;;;2.43;;
6513;SDS011;3290;47.716;9.070;2023-11-19T04:22:49;3.13;;;2.20;;
6513;SDS011;3290;47.716;9.070;2023-11-19T04:25:16;5.30;;;2.60;;
6513;SDS011;3290;47.716;9.070;2023-11-19T04:27:41;3.07;;;2.43;;
6513;SDS011;3290;47.716;9.070;2023-11-19T04:30:07;3.50;;;3.20;;
6513;SDS011;3290;47.716;9.070;2023-11-19T04:32:35;3.40;;;2.60;;
6513;SDS011;3290;47.716;9.070;2023-11-19T04:35:01;3.87;;;2.67;;
6513;SDS011;3290;47.716;9.070;2023-11-19T04:37:27;4.17;;;2.67;;
6513;SDS011;3290;47.716;9.070;2023-11-19T04:39:52;3.10;;;2.80;;
6513;SDS011;3290;47.716;9.070;2023-11-19T04:42:17;4.00;;;2.47;;
6513;SDS011;3290;47.716;9.070;2023-11-19T04:44:43;4.90;;;3.10;;
6513;SDS011;3290;47.716;9.070;2023-11-19T04:47:08;4.00;;;3.07;;
6513;SDS011;3290;47.716;9.070;2023-11-19T04:49:36;3.93;;;3.23;;
6513;SDS011;3290;47.716;9.070;2023-11-19T04:52:07;3.43;;;2.70;;
6513;SDS011;3290;47.716;9.070;2023-11-19T04:54:33;2.77;;;2.47;;
6513;SDS011;3290;47.716;9.070;2023-11-19T04:56:58;3.43;;;2.80;;
6513;SDS011;3290;47.716;9.070;2023-11-19T04:59:24;3.70;;;2.57;;
6513;SDS011;3290;47.716;9.070;2023-11-19T05:01:49;4.27;;;2.90;;
6513;SDS011;3290;47.716;9.070;2023-11-19T05:04:15;3.20;;;2.90;;
6513;SDS011;3290;47.716;9.070;2023-11-19T05:06:41;3.77;;;2.90;;
6513;SDS011;3290;47.716;9.070;2023-11-19T05:09:06;3.10;;;2.50;;
6513;SDS011;3290;47.716;9.070;2023-11-19T05:11:33;3.70;;;2.60;;
6513;SDS011;3290;47.716;9.070;2023-11-19T05:13:59;4.30;;;3.50;;
6513;SDS011;3290;47.716;9.070;2023-11-19T05:16:25;3.10;;;2.80;;
6513;SDS011;3290;47.716;9.070;2023-11-19T05:18:51;3.03;;;2.80;;
6513;SDS011;3290;47.716;9.070;2023-11-19T05:21:16;3.40;;;3.00;;
6513;SDS011;3290;47.716;9.070;2023-11-19T05:23:42;3.23;;;2.40;;
6513;SDS011;3290;47.716;9.070;2023-11-19T05:26:08;3.33;;;3.03;;
6513;SDS011;3290;47.716;9.070;2023-11-19T05:28:35;3.13;;;2.70;;
6513;SDS011;3290;47.716;9.070;2023-11-19T05:31:03;2.97;;;2.70;;
6513;SDS011;3290;47.716;9.070;2023-11-19T05:33:28;2.90;;;2.50;;
6513;SDS011;3290;47.716;9.070;2023-11-19T05:35:54;6.37;;;2.97;;
6513;SDS011;3290;47.716;9.070;2023-11-19T05:38:19;4.10;;;3.00;;
6513;SDS011;3290;47.716;9.070;2023-11-19T05:40:46;4.30;;;2.93;;
6513;SDS011;3290;47.716;9.070;2023-11-19T05:43:13;6.13;;;3.03;;
6513;SDS011;3290;47.716;9.070;2023-11-19T05:45:40;4.80;;;3.40;;
6513;SDS011;3290;47.716;9.070;2023-11-19T05:48:05;2.57;;;2.37;;
6513;SDS011;3290;47.716;9.070;2023-11-19T05:50:30;5.50;;;2.50;;
6513;SDS011;3290;47.716;9.070;2023-11-19T05:52:56;4.60;;;2.40;;
6513;SDS011;3290;47.716;9.070;2023-11-19T05:55:21;3.10;;;2.80;;
6513;SDS011;3290;47.716;9.070;2023-11-19T05:57:48;2.97;;;2.40;;
6513;SDS011;3290;47.716;9.070;2023-11-19T06:00:14;2.83;;;2.20;;
6513;SDS011;3290;47.716;9.070;2023-11-19T06:02:40;4.13;;;2.23;;
6513;SDS011;3290;47.716;9.070;2023-11-19T06:05:06;1.97;;;1.87;;
6513;SDS011;3290;47.716;9.070;2023-11-19T06:07:32;2.10;;;1.90;;
6513;SDS011;3290;47.716;9.070;2023-11-19T06:09:57;1.80;;;1.70;;
6513;SDS011;3290;47.716;9.070;2023-11-19T06:12:23;2.23;;;1.87;;
6513;SDS011;3290;47.716;9.070;2023-11-19T06:14:48;1.70;;;1.60;;
6513;SDS011;3290;47.716;9.070;2023-11-19T06:17:13;1.63;;;1.53;;
6513;SDS011;3290;47.716;9.070;2023-11-19T06:19:39;2.13;;;1.60;;
6513;SDS011;3290;47.716;9.070;2023-11-19T06:22:04;1.63;;;1.53;;
6513;SDS011;3290;47.716;9.070;2023-11-19T06:24:29;3.03;;;1.53;;
6513;SDS011;3290;47.716;9.070;2023-11-19T06:26:55;4.13;;;1.53;;
6513;SDS011;3290;47.716;9.070;2023-11-19T06:29:20;1.87;;;1.77;;
6513;SDS011;3290;47.716;9.070;2023-11-19T06:31:46;3.93;;;1.80;;
6513;SDS011;3290;47.716;9.070;2023-11-19T06:34:13;2.93;;;1.80;;
6513;SDS011;3290;47.716;9.070;2023-11-19T06:36:39;5.13;;;1.70;;
6513;SDS011;3290;47.716;9.070;2023-11-19T06:39:04;1.77;;;1.67;;
6513;SDS011;3290;47.716;9.070;2023-11-19T06:41:30;3.60;;;2.13;;
6513;SDS011;3290;47.716;9.070;2023-11-19T06:43:56;2.47;;;2.27;;
6513;SDS011;3290;47.716;9.070;2023-11-19T06:46:21;1.60;;;1.50;;
6513;SDS011;3290;47.716;9.070;2023-11-19T06:48:47;3.10;;;2.20;;
6513;SDS011;3290;47.716;9.070;2023-11-19T06:51:12;2.00;;;1.77;;
6513;SDS011;3290;47.716;9.070;2023-11-19T06:53:38;2.30;;;1.87;;
6513;SDS011;3290;47.716;9.070;2023-11-19T06:56:17;1.70;;;1.60;;
6513;SDS011;3290;47.716;9.070;2023-11-19T06:58:46;2.20;;;1.83;;
6513;SDS011;3290;47.716;9.070;2023-11-19T07:01:13;2.50;;;1.80;;
6513;SDS011;3290;47.716;9.070;2023-11-19T07:03:40;2.17;;;1.97;;
6513;SDS011;3290;47.716;9.070;2023-11-19T07:06:05;3.03;;;1.90;;
6513;SDS011;3290;47.716;9.070;2023-11-19T07:08:30;1.80;;;1.70;;
6513;SDS011;3290;47.716;9.070;2023-11-19T07:10:56;2.80;;;2.20;;
6513;SDS011;3290;47.716;9.070;2023-11-19T07:13:21;2.30;;;2.10;;
6513;SDS011;3290;47.716;9.070;2023-11-19T07:15:47;2.00;;;1.80;;
6513;SDS011;3290;47.716;9.070;2023-11-19T07:18:12;3.00;;;1.43;;
6513;SDS011;3290;47.716;9.070;2023-11-19T07:20:37;2.07;;;1.70;;
6513;SDS011;3290;47.716;9.070;2023-11-19T07:23:03;1.57;;;1.30;;
6513;SDS011;3290;47.716;9.070;2023-11-19T07:25:29;2.03;;;1.80;;
6513;SDS011;3290;47.716;9.070;2023-11-19T07:27:54;1.97;;;1.60;;
6513;SDS011;3290;47.716;9.070;2023-11-19T07:30:19;1.73;;;1.40;;
6513;SDS011;3290;47.716;9.070;2023-11-19T07:32:45;4.10;;;2.00;;
6513;SDS011;3290;47.716;9.070;2023-11-19T07:35:10;1.93;;;1.50;;
6513;SDS011;3290;47.716;9.070;2023-11-19T07:37:36;2.93;;;1.30;;
6513;SDS011;3290;47.716;9.070;2023-11-19T07:40:02;2.77;;;1.77;;
6513;SDS011;3290;47.716;9.070;2023-11-19T07:42:28;2.03;;;1.70;;
6513;SDS011;3290;47.716;9.070;2023-11-19T07:44:54;2.03;;;1.73;;
6513;SDS011;3290;47.716;9.070;2023-11-19T07:47:21;2.93;;;2.03;;
6513;SDS011;3290;47.716;9.070;2023-11-19T07:49:48;2.60;;;2.00;;
6513;SDS011;3290;47.716;9.070;2023-11-19T07:52:13;2.20;;;2.00;;
6513;SDS011;3290;47.716;9.070;2023-11-19T07:54:39;1.77;;;1.67;;
6513;SDS011;3290;47.716;9.070;2023-11-19T07:57:04;2.07;;;1.90;;
6513;SDS011;3290;47.716;9.070;2023-11-19T07:59:30;1.93;;;1.73;;
6513;SDS011;3290;47.716;9.070;2023-11-19T08:01:55;1.97;;;1.70;;
6513;SDS011;3290;47.716;9.070;2023-11-19T08:04:20;3.20;;;1.90;;
6513;SDS011;3290;47.716;9.070;2023-11-19T08:06:46;2.90;;;2.40;;
6513;SDS011;3290;47.716;9.070;2023-11-19T08:09:11;3.37;;;2.10;;
6513;SDS011;3290;47.716;9.070;2023-11-19T08:11:40;1.70;;;1.60;;
6513;SDS011;3290;47.716;9.070;2023-11-19T08:14:06;1.50;;;1.40;;
6513;SDS011;3290;47.716;9.070;2023-11-19T08:16:31;1.77;;;1.20;;
6513;SDS011;3290;47.716;9.070;2023-11-19T08:18:57;1.50;;;1.40;;
6513;SDS011;3290;47.716;9.070;2023-11-19T08:21:23;2.60;;;1.40;;
6513;SDS011;3290;47.716;9.070;2023-11-19T08:23:48;4.23;;;1.20;;
6513;SDS011;3290;47.716;9.070;2023-11-19T08:26:14;1.70;;;1.60;;
6513;SDS011;3290;47.716;9.070;2023-11-19T08:28:40;1.40;;;1.30;;
6513;SDS011;3290;47.716;9.070;2023-11-19T08:31:06;2.17;;;1.40;;
6513;SDS011;3290;47.716;9.070;2023-11-19T08:33:31;1.20;;;0.93;;
6513;SDS011;3290;47.716;9.070;2023-11-19T08:35:57;5.07;;;1.10;;
6513;SDS011;3290;47.716;9.070;2023-11-19T08:38:23;1.77;;;1.40;;
6513;SDS011;3290;47.716;9.070;2023-11-19T08:40:49;5.53;;;1.33;;
6513;SDS011;3290;47.716;9.070;2023-11-19T08:43:14;4.87;;;1.03;;
6513;SDS011;3290;47.716;9.070;2023-11-19T08:45:41;1.10;;;1.00;;
6513;SDS011;3290;47.716;9.070;2023-11-19T08:48:06;1.40;;;1.30;;
6513;SDS011;3290;47.716;9.070;2023-11-19T08:50:31;2.20;;;1.40;;
6513;SDS011;3290;47.716;9.070;2023-11-19T08:52:57;1.10;;;1.00;;
6513;SDS011;3290;47.716;9.070;2023-11-19T08:55:22;2.20;;;1.30;;
6513;SDS011;3290;47.716;9.070;2023-11-19T08:57:48;1.10;;;1.00;;
6513;SDS011;3290;47.716;9.070;2023-11-19T09:00:13;2.47;;;1.10;;
6513;SDS011;3290;47.716;9.070;2023-11-19T09:02:41;1.23;;;1.10;;
6513;SDS011;3290;47.716;9.070;2023-11-19T09:05:08;3.23;;;1.10;;
6513;SDS011;3290;47.716;9.070;2023-11-19T09:07:33;0.93;;;0.83;;
6513;SDS011;3290;47.716;9.070;2023-11-19T09:09:58;5.70;;;1.07;;
6513;SDS011;3290;47.716;9.070;2023-11-19T09:12:24;0.80;;;0.80;;
6513;SDS011;3290;47.716;9.070;2023-11-19T09:14:49;1.40;;;1.17;;
6513;SDS011;3290;47.716;9.070;2023-11-19T09:17:15;1.83;;;1.00;;
6513;SDS011;3290;47.716;9.070;2023-11-19T09:19:40;0.93;;;0.83;;
6513;SDS011;3290;47.716;9.070;2023-11-19T09:22:06;0.80;;;0.80;;
6513;SDS011;3290;47.716;9.070;2023-11-19T09:24:32;1.83;;;0.80;;
6513;SDS011;3290;47.716;9.070;2023-11-19T09:26:58;1.20;;;1.00;;
6513;SDS011;3290;47.716;9.070;2023-11-19T09:29:23;4.90;;;1.10;;
6513;SDS011;3290;47.716;9.070;2023-11-19T09:31:48;1.13;;;1.03;;
6513;SDS011;3290;47.716;9.070;2023-11-19T09:34:14;1.17;;;1.07;;
6513;SDS011;3290;47.716;9.070;2023-11-19T09:36:39;0.80;;;0.80;;
6513;SDS011;3290;47.716;9.070;2023-11-19T09:39:09;0.73;;;0.73;;
6513;SDS011;3290;47.716;9.070;2023-11-19T09:41:35;2.30;;;0.90;;
6513;SDS011;3290;47.716;9.070;2023-11-19T09:44:00;1.00;;;0.90;;
6513;SDS011;3290;47.716;9.070;2023-11-19T09:46:26;11.93;;;0.97;;
6513;SDS011;3290;47.716;9.070;2023-11-19T09:48:54;1.70;;;1.10;;
6513;SDS011;3290;47.716;9.070;2023-11-19T09:51:22;1.47;;;0.90;;
6513;SDS011;3290;47.716;9.070;2023-11-19T09:53:48;1.23;;;0.90;;
6513;SDS011;3290;47.716;9.070;2023-11-19T09:56:14;1.60;;;0.93;;
6513;SDS011;3290;47.716;9.070;2023-11-19T09:58:42;1.10;;;1.00;;
6513;SDS011;3290;47.716;9.070;2023-11-19T10:01:07;1.00;;;1.00;;
6513;SDS011;3290;47.716;9.070;2023-11-19T10:03:35;1.10;;;0.90;;
6513;SDS011;3290;47.716;9.070;2023-11-19T10:06:06;1.07;;;0.97;;
6513;SDS011;3290;47.716;9.070;2023-11-19T10:08:32;3.73;;;1.10;;
6513;SDS011;3290;47.716;9.070;2023-11-19T10:10:58;1.10;;;0.97;;
6513;SDS011;3290;47.716;9.070;2023-11-19T10:13:30;1.93;;;0.90;;
6513;SDS011;3290;47.716;9.070;2023-11-19T10:15:56;2.70;;;0.90;;
6513;SDS011;3290;47.716;9.070;2023-11-19T10:18:27;3.33;;;1.63;;
6513;SDS011;3290;47.716;9.070;2023-11-19T10:20:53;3.70;;;1.17;;
6513;SDS011;3290;47.716;9.070;2023-11-19T10:23:20;1.97;;;1.00;;
6513;SDS011;3290;47.716;9.070;2023-11-19T10:25:45;1.03;;;0.90;;
6513;SDS011;3290;47.716;9.070;2023-11-19T10:28:10;1.43;;;1.00;;
6513;SDS011;3290;47.716;9.070;2023-11-19T10:30:36;2.57;;;1.10;;
6513;SDS011;3290;47.716;9.070;2023-11-19T10:35:55;3.10;;;1.00;;
6513;SDS011;3290;47.716;9.070;2023-11-19T10:38:22;2.20;;;1.10;;
6513;SDS011;3290;47.716;9.070;2023-11-19T10:40:49;1.40;;;0.93;;
6513;SDS011;3290;47.716;9.070;2023-11-19T10:43:21;1.03;;;0.90;;
6513;SDS011;3290;47.716;9.070;2023-11-19T10:45:51;1.00;;;0.90;;
6513;SDS011;3290;47.716;9.070;2023-11-19T10:48:17;6.73;;;1.03;;
6513;SDS011;3290;47.716;9.070;2023-11-19T10:50:43;2.10;;;1.17;;
6513;SDS011;3290;47.716;9.070;2023-11-19T10:53:11;1.13;;;1.03;;
6513;SDS011;3290;47.716;9.070;2023-11-19T10:55:41;1.83;;;1.00;;
6513;SDS011;3290;47.716;9.070;2023-11-19T10:58:12;1.00;;;0.90;;
6513;SDS011;3290;47.716;9.070;2023-11-19T11:00:51;1.13;;;1.03;;
6513;SDS011;3290;47.716;9.070;2023-11-19T11:03:21;1.57;;;1.10;;
6513;SDS011;3290;47.716;9.070;2023-11-19T11:05:50;1.20;;;1.10;;
6513;SDS011;3290;47.716;9.070;2023-11-19T11:08:17;2.20;;;0.93;;
6513;SDS011;3290;47.716;9.070;2023-11-19T11:10:44;1.10;;;1.00;;
6513;SDS011;3290;47.716;9.070;2023-11-19T11:13:13;4.73;;;1.20;;
6513;SDS011;3290;47.716;9.070;2023-11-19T11:15:39;1.20;;;1.10;;
6513;SDS011;3290;47.716;9.070;2023-11-19T11:18:07;1.13;;;1.00;;
6513;SDS011;3290;47.716;9.070;2023-11-19T11:20:34;2.10;;;1.20;;
6513;SDS011;3290;47.716;9.070;2023-11-19T11:28:51;1.73;;;1.03;;
6513;SDS011;3290;47.716;9.070;2023-11-19T11:39:49;2.23;;;1.47;;
6513;SDS011;3290;47.716;9.070;2023-11-19T11:45:06;2.70;;;1.50;;
6513;SDS011;3290;47.716;9.070;2023-11-19T11:50:07;4.93;;;1.93;;
6513;SDS011;3290;47.716;9.070;2023-11-19T11:52:33;1.60;;;1.10;;
6513;SDS011;3290;47.716;9.070;2023-11-19T11:55:04;1.63;;;1.20;;
6513;SDS011;3290;47.716;9.070;2023-11-19T11:57:36;2.30;;;1.60;;
6513;SDS011;3290;47.716;9.070;2023-11-19T12:00:02;1.70;;;1.27;;
6513;SDS011;3290;47.716;9.070;2023-11-19T12:02:30;1.60;;;1.30;;
6513;SDS011;3290;47.716;9.070;2023-11-19T12:04:56;1.73;;;1.17;;
6513;SDS011;3290;47.716;9.070;2023-11-19T12:07:22;1.33;;;1.00;;
6513;SDS011;3290;47.716;9.070;2023-11-19T12:09:51;1.33;;;1.03;;
6513;SDS011;3290;47.716;9.070;2023-11-19T12:12:22;1.10;;;1.00;;
6513;SDS011;3290;47.716;9.070;2023-11-19T12:15:09;0.80;;;0.80;;
6513;SDS011;3290;47.716;9.070;2023-11-19T12:17:36;1.40;;;1.17;;
6513;SDS011;3290;47.716;9.070;2023-11-19T12:20:05;2.47;;;1.40;;
6513;SDS011;3290;47.716;9.070;2023-11-19T12:22:37;0.90;;;0.80;;
6513;SDS011;3290;47.716;9.070;2023-11-19T12:25:07;1.53;;;1.40;;
6513;SDS011;3290;47.716;9.070;2023-11-19T12:27:44;1.30;;;1.17;;
6513;SDS011;3290;47.716;9.070;2023-11-19T12:30:11;1.67;;;1.00;;
6513;SDS011;3290;47.716;9.070;2023-11-19T12:32:40;1.93;;;1.27;;
6513;SDS011;3290;47.716;9.070;2023-11-19T12:35:09;1.10;;;1.00;;
6513;SDS011;3290;47.716;9.070;2023-11-19T12:37:39;1.37;;;1.27;;
6513;SDS011;3290;47.716;9.070;2023-11-19T12:42:39;2.03;;;1.00;;
6513;SDS011;3290;47.716;9.070;2023-11-19T12:45:06;3.20;;;1.50;;
6513;SDS011;3290;47.716;9.070;2023-11-19T12:47:33;1.93;;;1.40;;
6513;SDS011;3290;47.716;9.070;2023-11-19T12:49:58;1.20;;;1.10;;
6513;SDS011;3290;47.716;9.070;2023-11-19T12:52:24;3.70;;;1.17;;
6513;SDS011;3290;47.716;9.070;2023-11-19T12:54:49;2.13;;;1.27;;
6513;SDS011;3290;47.716;9.070;2023-11-19T12:57:15;1.63;;;1.53;;
6513;SDS011;3290;47.716;9.070;2023-11-19T12:59:40;1.60;;;1.50;;
6513;SDS011;3290;47.716;9.070;2023-11-19T13:02:06;1.80;;;1.60;;
6513;SDS011;3290;47.716;9.070;2023-11-19T13:04:32;4.53;;;1.30;;
6513;SDS011;3290;47.716;9.070;2023-11-19T13:06:58;2.03;;;1.30;;
6513;SDS011;3290;47.716;9.070;2023-11-19T13:09:25;1.40;;;1.00;;
6513;SDS011;3290;47.716;9.070;2023-11-19T13:11:52;2.53;;;1.80;;
6513;SDS011;3290;47.716;9.070;2023-11-19T13:14:19;1.23;;;1.00;;
6513;SDS011;3290;47.716;9.070;2023-11-19T13:16:45;1.20;;;1.03;;
6513;SDS011;3290;47.716;9.070;2023-11-19T13:19:11;1.30;;;1.13;;
6513;SDS011;3290;47.716;9.070;2023-11-19T13:21:37;2.50;;;2.07;;
6513;SDS011;3290;47.716;9.070;2023-11-19T13:24:04;1.20;;;1.10;;
6513;SDS011;3290;47.716;9.070;2023-11-19T13:26:33;6.00;;;1.70;;
6513;SDS011;3290;47.716;9.070;2023-11-19T13:28:59;4.00;;;1.20;;
6513;SDS011;3290;47.716;9.070;2023-11-19T13:31:25;1.57;;;1.40;;
6513;SDS011;3290;47.716;9.070;2023-11-19T13:33:51;2.13;;;1.30;;
6513;SDS011;3290;47.716;9.070;2023-11-19T13:36:16;4.03;;;1.50;;
6513;SDS011;3290;47.716;9.070;2023-11-19T13:38:42;1.40;;;1.30;;
6513;SDS011;3290;47.716;9.070;2023-11-19T13:41:09;1.60;;;1.10;;
6513;SDS011;3290;47.716;9.070;2023-11-19T13:43:35;12.20;;;8.20;;
6513;SDS011;3290;47.716;9.070;2023-11-19T13:46:01;2.23;;;1.20;;
6513;SDS011;3290;47.716;9.070;2023-11-19T13:48:27;3.90;;;2.00;;
6513;SDS011;3290;47.716;9.070;2023-11-19T13:50:54;5.40;;;1.23;;
6513;SDS011;3290;47.716;9.070;2023-11-19T13:53:22;4.60;;;1.10;;
6513;SDS011;3290;47.716;9.070;2023-11-19T13:55:48;2.60;;;2.40;;
6513;SDS011;3290;47.716;9.070;2023-11-19T13:58:14;1.97;;;1.87;;
6513;SDS011;3290;47.716;9.070;2023-11-19T14:00:40;1.53;;;0.90;;
6513;SDS011;3290;47.716;9.070;2023-11-19T14:03:07;2.20;;;1.70;;
6513;SDS011;3290;47.716;9.070;2023-11-19T14:05:33;6.60;;;1.10;;
6513;SDS011;3290;47.716;9.070;2023-11-19T14:07:58;2.33;;;1.80;;
6513;SDS011;3290;47.716;9.070;2023-11-19T14:10:23;1.33;;;1.10;;
6513;SDS011;3290;47.716;9.070;2023-11-19T14:12:49;1.30;;;1.20;;
6513;SDS011;3290;47.716;9.070;2023-11-19T14:15:15;1.30;;;1.10;;
6513;SDS011;3290;47.716;9.070;2023-11-19T14:17:44;1.00;;;0.90;;
6513;SDS011;3290;47.716;9.070;2023-11-19T14:20:10;1.80;;;1.60;;
6513;SDS011;3290;47.716;9.070;2023-11-19T14:22:42;3.00;;;1.50;;
6513;SDS011;3290;47.716;9.070;2023-11-19T14:25:11;1.63;;;1.53;;
6513;SDS011;3290;47.716;9.070;2023-11-19T14:27:37;3.63;;;2.90;;
6513;SDS011;3290;47.716;9.070;2023-11-19T14:30:04;1.97;;;1.00;;
6513;SDS011;3290;47.716;9.070;2023-11-19T14:32:31;3.57;;;1.63;;
6513;SDS011;3290;47.716;9.070;2023-11-19T14:34:56;1.10;;;1.00;;
6513;SDS011;3290;47.716;9.070;2023-11-19T14:37:21;1.23;;;1.10;;
6513;SDS011;3290;47.716;9.070;2023-11-19T14:39:47;1.30;;;1.10;;
6513;SDS011;3290;47.716;9.070;2023-11-19T14:42:12;1.67;;;1.03;;
6513;SDS011;3290;47.716;9.070;2023-11-19T14:44:38;0.90;;;0.90;;
6513;SDS011;3290;47.716;9.070;2023-11-19T14:47:04;1.77;;;1.30;;
6513;SDS011;3290;47.716;9.070;2023-11-19T14:49:30;2.43;;;0.97;;
6513;SDS011;3290;47.716;9.070;2023-11-19T14:51:55;2.80;;;1.97;;
6513;SDS011;3290;47.716;9.070;2023-11-19T14:54:20;2.80;;;1.00;;
6513;SDS011;3290;47.716;9.070;2023-11-19T14:56:46;2.03;;;1.03;;
6513;SDS011;3290;47.716;9.070;2023-11-19T14:59:11;2.93;;;1.27;;
6513;SDS011;3290;47.716;9.070;2023-11-19T15:01:37;1.00;;;0.90;;
6513;SDS011;3290;47.716;9.070;2023-11-19T15:04:02;3.57;;;1.30;;
6513;SDS011;3290;47.716;9.070;2023-11-19T15:06:28;1.67;;;1.10;;
6513;SDS011;3290;47.716;9.070;2023-11-19T15:08:55;1.03;;;0.93;;
6513;SDS011;3290;47.716;9.070;2023-11-19T15:11:21;1.20;;;0.90;;
6513;SDS011;3290;47.716;9.070;2023-11-19T15:13:46;1.40;;;1.00;;
6513;SDS011;3290;47.716;9.070;2023-11-19T15:16:12;1.47;;;1.30;;
6513;SDS011;3290;47.716;9.070;2023-11-19T15:18:39;1.30;;;1.20;;
6513;SDS011;3290;47.716;9.070;2023-11-19T15:21:04;2.73;;;1.20;;
6513;SDS011;3290;47.716;9.070;2023-11-19T15:23:30;1.17;;;1.07;;
6513;SDS011;3290;47.716;9.070;2023-11-19T15:25:55;2.43;;;1.20;;
6513;SDS011;3290;47.716;9.070;2023-11-19T15:28:21;7.50;;;1.17;;
6513;SDS011;3290;47.716;9.070;2023-11-19T15:30:46;2.07;;;1.00;;
6513;SDS011;3290;47.716;9.070;2023-11-19T15:33:12;5.30;;;1.27;;
6513;SDS011;3290;47.716;9.070;2023-11-19T15:35:38;2.30;;;1.10;;